sensor_id;sensor_type;location;lat;lon;timestamp;P1;durP1;ratioP1;P2;durP2;ratioP2
2720;SDS011;1368;49.484;11.112;2022-08-19T00:01:32;63.87;;;54.63;;
2720;SDS011;1368;49.484;11.112;2022-08-19T00:03:59;63.03;;;53.87;;
2720;SDS011;1368;49.484;11.112;2022-08-19T00:06:26;66.27;;;55.50;;
2720;SDS011;1368;49.484;11.112;2022-08-19T00:08:53;56.80;;;49.83;;
2720;SDS011;1368;49.484;11.112;2022-08-19T00:11:19;61.93;;;54.60;;
2720;SDS011;1368;49.484;11.112;2022-08-19T00:13:45;65.17;;;53.23;;
2720;SDS011;1368;49.484;11.112;2022-08-19T00:16:12;66.53;;;53.70;;
2720;SDS011;1368;49.484;11.112;2022-08-19T00:18:38;62.63;;;53.23;;
2720;SDS011;1368;49.484;11.112;2022-08-19T00:21:04;59.13;;;52.53;;
2720;SDS011;1368;49.484;11.112;2022-08-19T00:23:32;59.80;;;51.80;;
2720;SDS011;1368;49.484;11.112;2022-08-19T00:25:59;56.33;;;49.30;;
2720;SDS011;1368;49.484;11.112;2022-08-19T00:28:25;56.40;;;47.40;;
2720;SDS011;1368;49.484;11.112;2022-08-19T00:30:51;61.00;;;50.37;;
2720;SDS011;1368;49.484;11.112;2022-08-19T00:33:18;58.80;;;51.13;;
2720;SDS011;1368;49.484;11.112;2022-08-19T00:35:44;60.80;;;50.37;;
2720;SDS011;1368;49.484;11.112;2022-08-19T00:38:09;50.60;;;42.93;;
2720;SDS011;1368;49.484;11.112;2022-08-19T00:40:35;44.37;;;39.73;;
2720;SDS011;1368;49.484;11.112;2022-08-19T00:43:01;56.43;;;46.63;;
2720;SDS011;1368;49.484;11.112;2022-08-19T00:45:32;49.23;;;41.37;;
2720;SDS011;1368;49.484;11.112;2022-08-19T00:48:00;45.13;;;40.43;;
2720;SDS011;1368;49.484;11.112;2022-08-19T00:50:29;48.27;;;43.10;;
2720;SDS011;1368;49.484;11.112;2022-08-19T00:52:55;50.87;;;43.43;;
2720;SDS011;1368;49.484;11.112;2022-08-19T00:55:23;45.47;;;40.43;;
2720;SDS011;1368;49.484;11.112;2022-08-19T00:57:58;53.23;;;47.13;;
2720;SDS011;1368;49.484;11.112;2022-08-19T01:00:27;50.17;;;44.63;;
2720;SDS011;1368;49.484;11.112;2022-08-19T01:02:53;55.00;;;45.67;;
2720;SDS011;1368;49.484;11.112;2022-08-19T01:05:21;50.00;;;42.13;;
2720;SDS011;1368;49.484;11.112;2022-08-19T01:07:49;47.33;;;42.13;;
2720;SDS011;1368;49.484;11.112;2022-08-19T01:10:16;50.93;;;44.70;;
2720;SDS011;1368;49.484;11.112;2022-08-19T01:12:48;47.80;;;42.07;;
2720;SDS011;1368;49.484;11.112;2022-08-19T01:15:17;54.70;;;44.30;;
2720;SDS011;1368;49.484;11.112;2022-08-19T01:17:47;49.00;;;42.50;;
2720;SDS011;1368;49.484;11.112;2022-08-19T01:20:16;54.70;;;43.80;;
2720;SDS011;1368;49.484;11.112;2022-08-19T01:22:51;51.73;;;42.07;;
2720;SDS011;1368;49.484;11.112;2022-08-19T01:25:22;46.43;;;41.50;;
2720;SDS011;1368;49.484;11.112;2022-08-19T01:27:52;47.00;;;40.07;;
2720;SDS011;1368;49.484;11.112;2022-08-19T01:30:21;55.63;;;46.00;;
2720;SDS011;1368;49.484;11.112;2022-08-19T01:32:50;45.10;;;40.30;;
2720;SDS011;1368;49.484;11.112;2022-08-19T01:35:16;50.97;;;43.40;;
2720;SDS011;1368;49.484;11.112;2022-08-19T01:37:50;50.80;;;44.13;;
2720;SDS011;1368;49.484;11.112;2022-08-19T01:40:19;49.70;;;43.33;;
2720;SDS011;1368;49.484;11.112;2022-08-19T01:42:48;47.63;;;42.73;;
2720;SDS011;1368;49.484;11.112;2022-08-19T01:45:15;48.17;;;42.10;;
2720;SDS011;1368;49.484;11.112;2022-08-19T01:47:41;48.57;;;43.30;;
2720;SDS011;1368;49.484;11.112;2022-08-19T01:50:08;44.77;;;39.77;;
2720;SDS011;1368;49.484;11.112;2022-08-19T01:52:35;49.03;;;43.70;;
2720;SDS011;1368;49.484;11.112;2022-08-19T01:55:03;45.67;;;40.87;;
2720;SDS011;1368;49.484;11.112;2022-08-19T01:57:30;49.50;;;43.70;;
2720;SDS011;1368;49.484;11.112;2022-08-19T01:59:56;46.83;;;41.90;;
2720;SDS011;1368;49.484;11.112;2022-08-19T02:02:21;48.60;;;43.30;;
2720;SDS011;1368;49.484;11.112;2022-08-19T02:04:47;50.03;;;43.23;;
2720;SDS011;1368;49.484;11.112;2022-08-19T02:07:13;45.90;;;40.93;;
2720;SDS011;1368;49.484;11.112;2022-08-19T02:09:39;54.03;;;45.60;;
2720;SDS011;1368;49.484;11.112;2022-08-19T02:12:06;51.53;;;41.63;;
2720;SDS011;1368;49.484;11.112;2022-08-19T02:14:34;57.50;;;45.60;;
2720;SDS011;1368;49.484;11.112;2022-08-19T02:17:01;52.13;;;44.20;;
2720;SDS011;1368;49.484;11.112;2022-08-19T02:19:27;55.77;;;44.10;;
2720;SDS011;1368;49.484;11.112;2022-08-19T02:21:52;47.60;;;42.57;;
2720;SDS011;1368;49.484;11.112;2022-08-19T02:24:18;48.97;;;43.70;;
2720;SDS011;1368;49.484;11.112;2022-08-19T02:26:43;52.97;;;45.20;;
2720;SDS011;1368;49.484;11.112;2022-08-19T02:29:09;52.10;;;42.97;;
2720;SDS011;1368;49.484;11.112;2022-08-19T02:31:35;48.83;;;43.40;;
2720;SDS011;1368;49.484;11.112;2022-08-19T02:34:01;53.83;;;44.90;;
2720;SDS011;1368;49.484;11.112;2022-08-19T02:36:26;48.23;;;42.93;;
2720;SDS011;1368;49.484;11.112;2022-08-19T02:38:53;52.40;;;46.30;;
2720;SDS011;1368;49.484;11.112;2022-08-19T02:41:20;64.80;;;50.43;;
2720;SDS011;1368;49.484;11.112;2022-08-19T02:43:48;61.33;;;48.60;;
2720;SDS011;1368;49.484;11.112;2022-08-19T02:46:18;56.00;;;47.90;;
2720;SDS011;1368;49.484;11.112;2022-08-19T02:48:49;53.23;;;47.27;;
2720;SDS011;1368;49.484;11.112;2022-08-19T02:51:18;58.57;;;47.73;;
2720;SDS011;1368;49.484;11.112;2022-08-19T02:53:45;49.87;;;44.47;;
2720;SDS011;1368;49.484;11.112;2022-08-19T02:56:10;53.43;;;46.43;;
2720;SDS011;1368;49.484;11.112;2022-08-19T02:58:36;52.93;;;44.80;;
2720;SDS011;1368;49.484;11.112;2022-08-19T03:01:02;51.13;;;44.33;;
2720;SDS011;1368;49.484;11.112;2022-08-19T03:03:27;51.53;;;43.87;;
2720;SDS011;1368;49.484;11.112;2022-08-19T03:06:02;60.53;;;47.90;;
2720;SDS011;1368;49.484;11.112;2022-08-19T03:08:32;64.13;;;49.77;;
2720;SDS011;1368;49.484;11.112;2022-08-19T03:10:58;48.43;;;43.13;;
2720;SDS011;1368;49.484;11.112;2022-08-19T03:13:24;52.30;;;44.07;;
2720;SDS011;1368;49.484;11.112;2022-08-19T03:15:49;50.77;;;43.40;;
2720;SDS011;1368;49.484;11.112;2022-08-19T03:18:15;56.33;;;44.17;;
2720;SDS011;1368;49.484;11.112;2022-08-19T03:20:42;51.03;;;43.80;;
2720;SDS011;1368;49.484;11.112;2022-08-19T03:23:15;53.07;;;45.80;;
2720;SDS011;1368;49.484;11.112;2022-08-19T03:25:44;55.07;;;44.50;;
2720;SDS011;1368;49.484;11.112;2022-08-19T03:28:12;52.30;;;43.30;;
2720;SDS011;1368;49.484;11.112;2022-08-19T03:30:39;50.80;;;44.40;;
2720;SDS011;1368;49.484;11.112;2022-08-19T03:33:07;53.90;;;46.00;;
2720;SDS011;1368;49.484;11.112;2022-08-19T03:35:34;49.87;;;44.33;;
2720;SDS011;1368;49.484;11.112;2022-08-19T03:38:03;49.80;;;44.20;;
2720;SDS011;1368;49.484;11.112;2022-08-19T03:40:31;49.93;;;44.03;;
2720;SDS011;1368;49.484;11.112;2022-08-19T03:42:56;48.83;;;41.63;;
2720;SDS011;1368;49.484;11.112;2022-08-19T03:45:22;52.60;;;44.10;;
2720;SDS011;1368;49.484;11.112;2022-08-19T03:47:48;58.60;;;46.60;;
2720;SDS011;1368;49.484;11.112;2022-08-19T03:50:14;51.60;;;43.37;;
2720;SDS011;1368;49.484;11.112;2022-08-19T03:52:41;52.13;;;44.80;;
2720;SDS011;1368;49.484;11.112;2022-08-19T03:55:07;59.63;;;48.13;;
2720;SDS011;1368;49.484;11.112;2022-08-19T03:57:33;56.97;;;45.70;;
2720;SDS011;1368;49.484;11.112;2022-08-19T03:59:59;46.10;;;40.27;;
2720;SDS011;1368;49.484;11.112;2022-08-19T04:02:25;54.10;;;44.60;;
2720;SDS011;1368;49.484;11.112;2022-08-19T04:04:52;48.50;;;42.40;;
2720;SDS011;1368;49.484;11.112;2022-08-19T04:07:19;52.97;;;46.27;;
2720;SDS011;1368;49.484;11.112;2022-08-19T04:09:46;52.97;;;44.13;;
2720;SDS011;1368;49.484;11.112;2022-08-19T04:12:12;53.50;;;46.53;;
2720;SDS011;1368;49.484;11.112;2022-08-19T04:14:38;49.17;;;42.57;;
2720;SDS011;1368;49.484;11.112;2022-08-19T04:17:04;53.83;;;43.73;;
2720;SDS011;1368;49.484;11.112;2022-08-19T04:19:30;52.93;;;43.00;;
2720;SDS011;1368;49.484;11.112;2022-08-19T04:21:57;51.43;;;45.00;;
2720;SDS011;1368;49.484;11.112;2022-08-19T04:24:23;54.63;;;45.23;;
2720;SDS011;1368;49.484;11.112;2022-08-19T04:26:49;51.43;;;43.37;;
2720;SDS011;1368;49.484;11.112;2022-08-19T04:29:17;51.97;;;43.83;;
2720;SDS011;1368;49.484;11.112;2022-08-19T04:31:46;48.10;;;41.30;;
2720;SDS011;1368;49.484;11.112;2022-08-19T04:34:13;50.07;;;42.53;;
2720;SDS011;1368;49.484;11.112;2022-08-19T04:36:41;51.90;;;45.10;;
2720;SDS011;1368;49.484;11.112;2022-08-19T04:39:15;62.93;;;44.40;;
2720;SDS011;1368;49.484;11.112;2022-08-19T04:41:44;46.97;;;41.83;;
2720;SDS011;1368;49.484;11.112;2022-08-19T04:44:29;48.03;;;42.80;;
2720;SDS011;1368;49.484;11.112;2022-08-19T04:46:56;49.00;;;41.67;;
2720;SDS011;1368;49.484;11.112;2022-08-19T04:49:22;50.77;;;43.40;;
2720;SDS011;1368;49.484;11.112;2022-08-19T04:51:49;51.83;;;44.20;;
2720;SDS011;1368;49.484;11.112;2022-08-19T04:54:16;50.07;;;42.40;;
2720;SDS011;1368;49.484;11.112;2022-08-19T04:56:45;51.93;;;44.53;;
2720;SDS011;1368;49.484;11.112;2022-08-19T04:59:10;45.87;;;40.90;;
2720;SDS011;1368;49.484;11.112;2022-08-19T05:01:36;44.83;;;40.10;;
2720;SDS011;1368;49.484;11.112;2022-08-19T05:04:03;48.00;;;41.00;;
2720;SDS011;1368;49.484;11.112;2022-08-19T05:06:31;45.73;;;37.80;;
2720;SDS011;1368;49.484;11.112;2022-08-19T05:09:01;43.07;;;38.07;;
2720;SDS011;1368;49.484;11.112;2022-08-19T05:11:30;41.30;;;37.00;;
2720;SDS011;1368;49.484;11.112;2022-08-19T05:13:57;51.77;;;43.53;;
2720;SDS011;1368;49.484;11.112;2022-08-19T05:16:24;46.30;;;40.93;;
2720;SDS011;1368;49.484;11.112;2022-08-19T05:18:51;45.07;;;39.60;;
2720;SDS011;1368;49.484;11.112;2022-08-19T05:21:36;45.80;;;39.73;;
2720;SDS011;1368;49.484;11.112;2022-08-19T05:24:21;43.57;;;38.97;;
2720;SDS011;1368;49.484;11.112;2022-08-19T05:26:48;45.30;;;40.43;;
2720;SDS011;1368;49.484;11.112;2022-08-19T05:29:17;50.30;;;42.90;;
2720;SDS011;1368;49.484;11.112;2022-08-19T05:31:45;46.50;;;40.30;;
2720;SDS011;1368;49.484;11.112;2022-08-19T05:34:11;43.93;;;39.13;;
2720;SDS011;1368;49.484;11.112;2022-08-19T05:36:40;41.30;;;36.77;;
2720;SDS011;1368;49.484;11.112;2022-08-19T05:39:08;48.73;;;42.00;;
2720;SDS011;1368;49.484;11.112;2022-08-19T05:41:42;43.53;;;39.03;;
2720;SDS011;1368;49.484;11.112;2022-08-19T05:44:08;43.83;;;39.37;;
2720;SDS011;1368;49.484;11.112;2022-08-19T05:46:35;44.17;;;38.90;;
2720;SDS011;1368;49.484;11.112;2022-08-19T05:49:03;48.43;;;39.20;;
2720;SDS011;1368;49.484;11.112;2022-08-19T05:51:30;44.17;;;39.40;;
2720;SDS011;1368;49.484;11.112;2022-08-19T05:53:57;41.83;;;37.50;;
2720;SDS011;1368;49.484;11.112;2022-08-19T05:56:23;41.53;;;36.63;;
2720;SDS011;1368;49.484;11.112;2022-08-19T05:58:49;42.40;;;37.90;;
2720;SDS011;1368;49.484;11.112;2022-08-19T06:01:16;35.60;;;31.53;;
2720;SDS011;1368;49.484;11.112;2022-08-19T06:03:43;38.17;;;34.07;;
2720;SDS011;1368;49.484;11.112;2022-08-19T06:06:10;35.63;;;31.83;;
2720;SDS011;1368;49.484;11.112;2022-08-19T06:08:37;33.67;;;30.27;;
2720;SDS011;1368;49.484;11.112;2022-08-19T06:11:20;35.20;;;31.53;;
2720;SDS011;1368;49.484;11.112;2022-08-19T06:13:51;33.60;;;30.40;;
2720;SDS011;1368;49.484;11.112;2022-08-19T06:16:19;33.07;;;29.67;;
2720;SDS011;1368;49.484;11.112;2022-08-19T06:18:47;34.13;;;30.53;;
2720;SDS011;1368;49.484;11.112;2022-08-19T06:21:17;32.13;;;28.80;;
2720;SDS011;1368;49.484;11.112;2022-08-19T06:23:47;31.80;;;28.67;;
2720;SDS011;1368;49.484;11.112;2022-08-19T06:26:13;30.73;;;27.53;;
2720;SDS011;1368;49.484;11.112;2022-08-19T06:28:40;28.37;;;25.67;;
2720;SDS011;1368;49.484;11.112;2022-08-19T06:31:08;26.83;;;23.13;;
2720;SDS011;1368;49.484;11.112;2022-08-19T06:33:35;28.83;;;25.87;;
2720;SDS011;1368;49.484;11.112;2022-08-19T06:36:00;28.20;;;25.40;;
2720;SDS011;1368;49.484;11.112;2022-08-19T06:38:26;27.83;;;25.23;;
2720;SDS011;1368;49.484;11.112;2022-08-19T06:40:59;26.40;;;24.00;;
2720;SDS011;1368;49.484;11.112;2022-08-19T06:43:26;25.50;;;23.10;;
2720;SDS011;1368;49.484;11.112;2022-08-19T06:45:51;25.13;;;22.83;;
2720;SDS011;1368;49.484;11.112;2022-08-19T06:48:17;27.50;;;24.70;;
2720;SDS011;1368;49.484;11.112;2022-08-19T06:50:43;27.47;;;24.63;;
2720;SDS011;1368;49.484;11.112;2022-08-19T06:53:08;27.77;;;24.97;;
2720;SDS011;1368;49.484;11.112;2022-08-19T06:55:34;26.43;;;23.57;;
2720;SDS011;1368;49.484;11.112;2022-08-19T06:58:03;21.13;;;18.70;;
2720;SDS011;1368;49.484;11.112;2022-08-19T07:00:29;21.57;;;19.40;;
2720;SDS011;1368;49.484;11.112;2022-08-19T07:02:55;23.00;;;20.50;;
2720;SDS011;1368;49.484;11.112;2022-08-19T07:05:21;21.53;;;19.43;;
2720;SDS011;1368;49.484;11.112;2022-08-19T07:07:46;24.53;;;19.30;;
2720;SDS011;1368;49.484;11.112;2022-08-19T07:10:12;21.50;;;19.20;;
2720;SDS011;1368;49.484;11.112;2022-08-19T07:12:38;24.30;;;21.40;;
2720;SDS011;1368;49.484;11.112;2022-08-19T07:15:05;23.53;;;20.50;;
2720;SDS011;1368;49.484;11.112;2022-08-19T07:17:33;23.00;;;20.50;;
2720;SDS011;1368;49.484;11.112;2022-08-19T07:20:03;21.23;;;19.23;;
2720;SDS011;1368;49.484;11.112;2022-08-19T07:22:32;21.13;;;18.93;;
2720;SDS011;1368;49.484;11.112;2022-08-19T07:24:58;23.00;;;20.47;;
2720;SDS011;1368;49.484;11.112;2022-08-19T07:27:24;23.73;;;21.20;;
2720;SDS011;1368;49.484;11.112;2022-08-19T07:29:50;21.93;;;19.73;;
2720;SDS011;1368;49.484;11.112;2022-08-19T07:32:17;24.97;;;22.27;;
2720;SDS011;1368;49.484;11.112;2022-08-19T07:34:43;28.97;;;25.40;;
2720;SDS011;1368;49.484;11.112;2022-08-19T07:37:10;25.40;;;22.80;;
2720;SDS011;1368;49.484;11.112;2022-08-19T07:39:37;27.33;;;24.53;;
2720;SDS011;1368;49.484;11.112;2022-08-19T07:42:06;26.97;;;24.10;;
2720;SDS011;1368;49.484;11.112;2022-08-19T07:44:34;28.00;;;25.13;;
2720;SDS011;1368;49.484;11.112;2022-08-19T07:47:01;26.47;;;22.97;;
2720;SDS011;1368;49.484;11.112;2022-08-19T07:49:27;25.60;;;23.00;;
2720;SDS011;1368;49.484;11.112;2022-08-19T07:51:57;33.40;;;24.67;;
2720;SDS011;1368;49.484;11.112;2022-08-19T07:54:26;27.80;;;24.90;;
2720;SDS011;1368;49.484;11.112;2022-08-19T07:56:54;28.87;;;25.80;;
2720;SDS011;1368;49.484;11.112;2022-08-19T07:59:20;27.00;;;23.53;;
2720;SDS011;1368;49.484;11.112;2022-08-19T08:01:47;27.70;;;24.70;;
2720;SDS011;1368;49.484;11.112;2022-08-19T08:04:14;29.43;;;26.40;;
2720;SDS011;1368;49.484;11.112;2022-08-19T08:06:59;26.60;;;23.13;;
2720;SDS011;1368;49.484;11.112;2022-08-19T08:09:43;29.07;;;25.60;;
2720;SDS011;1368;49.484;11.112;2022-08-19T08:12:14;27.80;;;24.80;;
2720;SDS011;1368;49.484;11.112;2022-08-19T08:14:44;29.17;;;25.30;;
2720;SDS011;1368;49.484;11.112;2022-08-19T08:17:12;31.83;;;26.10;;
2720;SDS011;1368;49.484;11.112;2022-08-19T08:19:40;30.60;;;26.17;;
2720;SDS011;1368;49.484;11.112;2022-08-19T08:22:06;28.50;;;25.43;;
2720;SDS011;1368;49.484;11.112;2022-08-19T08:24:33;36.90;;;25.40;;
2720;SDS011;1368;49.484;11.112;2022-08-19T08:27:00;26.87;;;24.07;;
2720;SDS011;1368;49.484;11.112;2022-08-19T08:29:27;29.80;;;25.37;;
2720;SDS011;1368;49.484;11.112;2022-08-19T08:31:55;26.13;;;23.33;;
2720;SDS011;1368;49.484;11.112;2022-08-19T08:34:20;26.97;;;24.17;;
2720;SDS011;1368;49.484;11.112;2022-08-19T08:36:46;26.90;;;24.10;;
2720;SDS011;1368;49.484;11.112;2022-08-19T08:39:13;26.10;;;23.30;;
2720;SDS011;1368;49.484;11.112;2022-08-19T08:41:50;26.03;;;23.23;;
2720;SDS011;1368;49.484;11.112;2022-08-19T08:44:47;27.80;;;24.90;;
2720;SDS011;1368;49.484;11.112;2022-08-19T08:47:29;31.07;;;25.00;;
2720;SDS011;1368;49.484;11.112;2022-08-19T08:52:37;27.53;;;24.73;;
2720;SDS011;1368;49.484;11.112;2022-08-19T08:55:15;29.33;;;24.63;;
2720;SDS011;1368;49.484;11.112;2022-08-19T09:00:15;27.17;;;24.37;;
2720;SDS011;1368;49.484;11.112;2022-08-19T09:02:45;31.90;;;27.87;;
2720;SDS011;1368;49.484;11.112;2022-08-19T09:05:11;33.07;;;27.67;;
2720;SDS011;1368;49.484;11.112;2022-08-19T09:07:53;31.50;;;27.23;;
2720;SDS011;1368;49.484;11.112;2022-08-19T09:10:45;34.70;;;30.80;;
2720;SDS011;1368;49.484;11.112;2022-08-19T09:16:06;38.23;;;33.47;;
2720;SDS011;1368;49.484;11.112;2022-08-19T09:21:07;37.27;;;32.23;;
2720;SDS011;1368;49.484;11.112;2022-08-19T09:23:34;37.53;;;32.73;;
2720;SDS011;1368;49.484;11.112;2022-08-19T09:26:00;36.03;;;32.20;;
2720;SDS011;1368;49.484;11.112;2022-08-19T09:28:26;36.57;;;31.80;;
2720;SDS011;1368;49.484;11.112;2022-08-19T09:30:52;44.90;;;34.20;;
2720;SDS011;1368;49.484;11.112;2022-08-19T09:33:18;39.77;;;34.97;;
2720;SDS011;1368;49.484;11.112;2022-08-19T09:35:44;42.23;;;34.60;;
2720;SDS011;1368;49.484;11.112;2022-08-19T09:38:11;38.70;;;32.10;;
2720;SDS011;1368;49.484;11.112;2022-08-19T09:40:36;38.40;;;32.97;;
2720;SDS011;1368;49.484;11.112;2022-08-19T09:43:02;47.73;;;36.70;;
2720;SDS011;1368;49.484;11.112;2022-08-19T09:45:28;37.43;;;32.40;;
2720;SDS011;1368;49.484;11.112;2022-08-19T09:47:54;35.30;;;31.37;;
2720;SDS011;1368;49.484;11.112;2022-08-19T09:50:19;36.00;;;30.80;;
2720;SDS011;1368;49.484;11.112;2022-08-19T09:52:46;32.90;;;29.50;;
2720;SDS011;1368;49.484;11.112;2022-08-19T09:55:12;34.20;;;29.53;;
2720;SDS011;1368;49.484;11.112;2022-08-19T09:57:38;33.40;;;28.20;;
2720;SDS011;1368;49.484;11.112;2022-08-19T10:00:04;34.13;;;30.40;;
2720;SDS011;1368;49.484;11.112;2022-08-19T10:02:32;34.20;;;30.47;;
2720;SDS011;1368;49.484;11.112;2022-08-19T10:04:58;36.83;;;32.83;;
2720;SDS011;1368;49.484;11.112;2022-08-19T10:07:46;36.40;;;31.80;;
2720;SDS011;1368;49.484;11.112;2022-08-19T10:10:12;36.17;;;32.00;;
2720;SDS011;1368;49.484;11.112;2022-08-19T10:12:38;38.37;;;32.40;;
2720;SDS011;1368;49.484;11.112;2022-08-19T10:15:04;40.57;;;30.80;;
2720;SDS011;1368;49.484;11.112;2022-08-19T10:17:31;35.93;;;30.93;;
2720;SDS011;1368;49.484;11.112;2022-08-19T10:19:58;36.37;;;31.13;;
2720;SDS011;1368;49.484;11.112;2022-08-19T10:22:24;32.83;;;28.57;;
2720;SDS011;1368;49.484;11.112;2022-08-19T10:24:50;34.93;;;31.13;;
2720;SDS011;1368;49.484;11.112;2022-08-19T10:27:16;38.30;;;31.33;;
2720;SDS011;1368;49.484;11.112;2022-08-19T10:29:42;33.90;;;30.27;;
2720;SDS011;1368;49.484;11.112;2022-08-19T10:32:08;36.70;;;30.90;;
2720;SDS011;1368;49.484;11.112;2022-08-19T10:34:35;33.00;;;28.87;;
2720;SDS011;1368;49.484;11.112;2022-08-19T10:37:03;34.93;;;31.17;;
2720;SDS011;1368;49.484;11.112;2022-08-19T10:39:31;31.50;;;28.17;;
2720;SDS011;1368;49.484;11.112;2022-08-19T10:41:58;35.43;;;30.90;;
2720;SDS011;1368;49.484;11.112;2022-08-19T10:44:23;32.53;;;27.53;;
2720;SDS011;1368;49.484;11.112;2022-08-19T10:46:50;34.90;;;29.20;;
2720;SDS011;1368;49.484;11.112;2022-08-19T10:49:16;35.43;;;30.33;;
2720;SDS011;1368;49.484;11.112;2022-08-19T10:51:43;37.67;;;29.03;;
2720;SDS011;1368;49.484;11.112;2022-08-19T10:54:28;33.53;;;29.80;;
2720;SDS011;1368;49.484;11.112;2022-08-19T10:57:14;31.10;;;27.70;;
2720;SDS011;1368;49.484;11.112;2022-08-19T10:59:40;34.87;;;29.47;;
2720;SDS011;1368;49.484;11.112;2022-08-19T11:02:08;38.13;;;30.43;;
2720;SDS011;1368;49.484;11.112;2022-08-19T11:04:37;32.00;;;28.60;;
2720;SDS011;1368;49.484;11.112;2022-08-19T11:07:04;32.00;;;28.50;;
2720;SDS011;1368;49.484;11.112;2022-08-19T11:09:30;32.00;;;28.53;;
2720;SDS011;1368;49.484;11.112;2022-08-19T11:11:56;31.90;;;27.70;;
2720;SDS011;1368;49.484;11.112;2022-08-19T11:14:22;31.00;;;27.50;;
2720;SDS011;1368;49.484;11.112;2022-08-19T11:16:50;32.17;;;28.03;;
2720;SDS011;1368;49.484;11.112;2022-08-19T11:19:20;30.27;;;27.10;;
2720;SDS011;1368;49.484;11.112;2022-08-19T11:21:48;33.07;;;29.50;;
2720;SDS011;1368;49.484;11.112;2022-08-19T11:24:16;30.47;;;27.27;;
2720;SDS011;1368;49.484;11.112;2022-08-19T11:26:47;34.60;;;27.87;;
2720;SDS011;1368;49.484;11.112;2022-08-19T11:29:15;33.10;;;29.50;;
2720;SDS011;1368;49.484;11.112;2022-08-19T11:31:43;32.03;;;26.83;;
2720;SDS011;1368;49.484;11.112;2022-08-19T11:34:11;29.50;;;26.47;;
2720;SDS011;1368;49.484;11.112;2022-08-19T11:36:40;30.67;;;27.37;;
2720;SDS011;1368;49.484;11.112;2022-08-19T11:39:09;32.33;;;28.97;;
2720;SDS011;1368;49.484;11.112;2022-08-19T11:41:36;33.43;;;29.67;;
2720;SDS011;1368;49.484;11.112;2022-08-19T11:44:02;31.70;;;28.37;;
2720;SDS011;1368;49.484;11.112;2022-08-19T11:46:29;36.43;;;31.47;;
2720;SDS011;1368;49.484;11.112;2022-08-19T11:48:58;34.67;;;30.97;;
2720;SDS011;1368;49.484;11.112;2022-08-19T11:51:25;34.47;;;30.70;;
2720;SDS011;1368;49.484;11.112;2022-08-19T11:53:55;35.07;;;31.30;;
2720;SDS011;1368;49.484;11.112;2022-08-19T11:56:22;35.00;;;31.30;;
2720;SDS011;1368;49.484;11.112;2022-08-19T11:58:49;31.33;;;27.90;;
2720;SDS011;1368;49.484;11.112;2022-08-19T12:01:15;32.00;;;28.57;;
2720;SDS011;1368;49.484;11.112;2022-08-19T12:03:43;31.17;;;27.90;;
2720;SDS011;1368;49.484;11.112;2022-08-19T12:06:12;32.80;;;28.87;;
2720;SDS011;1368;49.484;11.112;2022-08-19T12:08:40;30.83;;;27.63;;
2720;SDS011;1368;49.484;11.112;2022-08-19T12:11:07;31.30;;;28.10;;
2720;SDS011;1368;49.484;11.112;2022-08-19T12:13:33;32.10;;;28.80;;
2720;SDS011;1368;49.484;11.112;2022-08-19T12:15:59;32.63;;;29.43;;
2720;SDS011;1368;49.484;11.112;2022-08-19T12:18:25;37.37;;;29.50;;
2720;SDS011;1368;49.484;11.112;2022-08-19T12:20:52;32.47;;;28.97;;
2720;SDS011;1368;49.484;11.112;2022-08-19T12:23:21;30.13;;;27.00;;
2720;SDS011;1368;49.484;11.112;2022-08-19T12:25:48;30.23;;;26.90;;
2720;SDS011;1368;49.484;11.112;2022-08-19T12:28:18;30.03;;;26.93;;
2720;SDS011;1368;49.484;11.112;2022-08-19T12:30:45;32.73;;;28.53;;
2720;SDS011;1368;49.484;11.112;2022-08-19T12:33:11;31.23;;;27.23;;
2720;SDS011;1368;49.484;11.112;2022-08-19T12:35:41;30.20;;;27.13;;
2720;SDS011;1368;49.484;11.112;2022-08-19T12:38:09;29.03;;;25.70;;
2720;SDS011;1368;49.484;11.112;2022-08-19T12:40:35;30.43;;;26.57;;
2720;SDS011;1368;49.484;11.112;2022-08-19T12:43:01;33.20;;;29.50;;
2720;SDS011;1368;49.484;11.112;2022-08-19T12:45:26;36.60;;;32.60;;
2720;SDS011;1368;49.484;11.112;2022-08-19T12:47:53;35.10;;;31.30;;
2720;SDS011;1368;49.484;11.112;2022-08-19T12:50:18;34.73;;;30.90;;
2720;SDS011;1368;49.484;11.112;2022-08-19T12:52:46;38.27;;;33.43;;
2720;SDS011;1368;49.484;11.112;2022-08-19T12:55:12;37.83;;;33.73;;
2720;SDS011;1368;49.484;11.112;2022-08-19T12:57:38;39.90;;;34.60;;
2720;SDS011;1368;49.484;11.112;2022-08-19T13:02:35;40.43;;;35.10;;
2720;SDS011;1368;49.484;11.112;2022-08-19T13:05:03;42.67;;;36.20;;
2720;SDS011;1368;49.484;11.112;2022-08-19T13:07:29;43.10;;;37.30;;
2720;SDS011;1368;49.484;11.112;2022-08-19T13:09:56;37.70;;;33.70;;
2720;SDS011;1368;49.484;11.112;2022-08-19T13:12:22;47.40;;;39.00;;
2720;SDS011;1368;49.484;11.112;2022-08-19T13:14:51;43.50;;;37.43;;
2720;SDS011;1368;49.484;11.112;2022-08-19T13:17:18;41.70;;;37.27;;
2720;SDS011;1368;49.484;11.112;2022-08-19T13:19:44;40.80;;;36.00;;
2720;SDS011;1368;49.484;11.112;2022-08-19T13:22:10;37.70;;;33.73;;
2720;SDS011;1368;49.484;11.112;2022-08-19T13:24:37;42.00;;;36.83;;
2720;SDS011;1368;49.484;11.112;2022-08-19T13:27:02;42.57;;;38.00;;
2720;SDS011;1368;49.484;11.112;2022-08-19T13:29:28;40.37;;;36.17;;
2720;SDS011;1368;49.484;11.112;2022-08-19T13:32:12;38.80;;;34.80;;
2720;SDS011;1368;49.484;11.112;2022-08-19T13:34:56;44.87;;;38.00;;
2720;SDS011;1368;49.484;11.112;2022-08-19T13:37:22;41.20;;;36.80;;
2720;SDS011;1368;49.484;11.112;2022-08-19T13:40:06;40.37;;;35.90;;
2720;SDS011;1368;49.484;11.112;2022-08-19T13:42:37;43.67;;;38.90;;
2720;SDS011;1368;49.484;11.112;2022-08-19T13:45:04;44.23;;;36.43;;
2720;SDS011;1368;49.484;11.112;2022-08-19T13:47:31;39.90;;;35.70;;
2720;SDS011;1368;49.484;11.112;2022-08-19T13:49:59;37.70;;;33.60;;
2720;SDS011;1368;49.484;11.112;2022-08-19T13:52:25;38.03;;;34.27;;
2720;SDS011;1368;49.484;11.112;2022-08-19T13:54:51;38.67;;;34.27;;
2720;SDS011;1368;49.484;11.112;2022-08-19T13:57:16;43.67;;;38.20;;
2720;SDS011;1368;49.484;11.112;2022-08-19T13:59:42;45.43;;;38.90;;
2720;SDS011;1368;49.484;11.112;2022-08-19T14:02:07;43.43;;;37.23;;
2720;SDS011;1368;49.484;11.112;2022-08-19T14:04:33;46.60;;;37.90;;
2720;SDS011;1368;49.484;11.112;2022-08-19T14:06:59;39.70;;;35.17;;
2720;SDS011;1368;49.484;11.112;2022-08-19T14:09:24;41.53;;;34.97;;
2720;SDS011;1368;49.484;11.112;2022-08-19T14:11:50;47.23;;;38.47;;
2720;SDS011;1368;49.484;11.112;2022-08-19T14:14:16;40.97;;;34.73;;
2720;SDS011;1368;49.484;11.112;2022-08-19T14:16:41;35.87;;;31.70;;
2720;SDS011;1368;49.484;11.112;2022-08-19T14:19:07;37.33;;;31.03;;
2720;SDS011;1368;49.484;11.112;2022-08-19T14:21:33;29.00;;;25.53;;
2720;SDS011;1368;49.484;11.112;2022-08-19T14:23:59;30.50;;;26.30;;
2720;SDS011;1368;49.484;11.112;2022-08-19T14:26:26;30.07;;;23.80;;
2720;SDS011;1368;49.484;11.112;2022-08-19T14:28:51;32.30;;;26.07;;
2720;SDS011;1368;49.484;11.112;2022-08-19T14:31:18;24.93;;;22.20;;
2720;SDS011;1368;49.484;11.112;2022-08-19T14:33:44;27.80;;;24.00;;
2720;SDS011;1368;49.484;11.112;2022-08-19T14:36:11;24.83;;;21.70;;
2720;SDS011;1368;49.484;11.112;2022-08-19T14:38:37;26.70;;;22.13;;
2720;SDS011;1368;49.484;11.112;2022-08-19T14:43:58;29.53;;;25.90;;
2720;SDS011;1368;49.484;11.112;2022-08-19T14:46:26;27.53;;;24.63;;
2720;SDS011;1368;49.484;11.112;2022-08-19T14:48:53;36.50;;;27.50;;
2720;SDS011;1368;49.484;11.112;2022-08-19T14:51:23;33.27;;;29.77;;
2720;SDS011;1368;49.484;11.112;2022-08-19T14:53:51;33.67;;;27.03;;